Time;durP1;ratioP1;P1;durP2;ratioP2;P2;SDS_P1;SDS_P2;PMS_P1;PMS_P2;Temp;Humidity;BMP_temperature;BMP_pressure;BME280_temperature;BME280_humidity;BME280_pressure;Samples;Min_cycle;Max_cycle;Signal;HPM_P1;HPM_P2
2023/04/06 00:01:35;;;;;;;10.40;9.13;;;4.80;99.90;;;;;;5026600;28;20217;-69
2023/04/06 00:04:01;;;;;;;10.47;9.47;;;4.70;99.90;;;;;;5007158;28;20950;-69
2023/04/06 00:06:27;;;;;;;9.80;8.80;;;4.60;99.90;;;;;;5009296;28;20672;-70
2023/04/06 00:08:52;;;;;;;8.53;7.67;;;4.50;99.90;;;;;;5028142;28;20202;-70
2023/04/06 00:11:18;;;;;;;9.17;8.37;;;4.40;99.90;;;;;;5009928;28;20941;-69
2023/04/06 00:13:44;;;;;;;9.70;8.80;;;4.40;99.90;;;;;;5010011;28;20186;-69
2023/04/06 00:16:10;;;;;;;9.67;8.67;;;4.50;99.90;;;;;;5005885;28;20208;-69
2023/04/06 00:18:36;;;;;;;10.63;9.47;;;4.60;99.90;;;;;;5022737;28;20568;-69
2023/04/06 00:21:03;;;;;;;9.97;8.20;;;4.60;99.90;;;;;;5022954;28;20191;-69
2023/04/06 00:23:28;;;;;;;11.30;9.47;;;4.70;99.90;;;;;;5007500;28;20520;-69
2023/04/06 00:25:55;;;;;;;10.00;9.07;;;4.80;99.90;;;;;;5005996;28;20431;-69
2023/04/06 00:28:25;;;;;;;9.47;8.57;;;4.70;99.90;;;;;;5022300;28;20275;-69
2023/04/06 00:30:52;;;;;;;10.00;8.23;;;4.60;99.90;;;;;;5005649;28;20754;-69
2023/04/06 00:33:18;;;;;;;9.10;8.20;;;4.70;99.90;;;;;;5025943;28;20426;-69
2023/04/06 00:35:44;;;;;;;10.30;9.30;;;4.70;99.90;;;;;;5006487;28;20419;-70
2023/04/06 00:38:11;;;;;;;10.83;9.73;;;4.70;99.90;;;;;;5022775;28;20446;-69
2023/04/06 00:40:37;;;;;;;12.03;9.57;;;4.60;99.90;;;;;;5022956;28;20191;-69
2023/04/06 00:43:02;;;;;;;9.30;8.40;;;4.60;99.90;;;;;;5022112;28;20447;-69
2023/04/06 00:45:28;;;;;;;11.43;9.27;;;4.50;99.90;;;;;;5025557;28;20182;-70
2023/04/06 00:47:54;;;;;;;9.90;9.00;;;4.40;99.90;;;;;;5026663;28;20225;-70
2023/04/06 00:50:20;;;;;;;11.37;9.60;;;4.30;99.90;;;;;;5009382;28;20410;-70
2023/04/06 00:52:45;;;;;;;9.97;8.97;;;4.40;99.90;;;;;;5008065;28;20649;-70
2023/04/06 00:55:11;;;;;;;9.83;8.47;;;4.40;99.90;;;;;;5027029;28;20202;-70
2023/04/06 00:57:37;;;;;;;10.10;9.00;;;4.40;99.90;;;;;;5006038;28;20250;-70
2023/04/06 01:00:04;;;;;;;10.03;9.07;;;4.40;99.90;;;;;;5022173;28;20190;-70
2023/04/06 01:02:30;;;;;;;11.10;9.47;;;4.30;99.90;;;;;;5021077;28;20239;-69
2023/04/06 01:04:55;;;;;;;10.60;9.50;;;4.50;99.90;;;;;;5021964;28;20512;-70
2023/04/06 01:07:21;;;;;;;11.27;10.07;;;4.50;99.90;;;;;;5022193;28;20199;-69
2023/04/06 01:09:47;;;;;;;9.90;8.90;;;4.50;99.90;;;;;;5022715;28;20246;-70
2023/04/06 01:12:12;;;;;;;10.97;9.17;;;4.50;99.90;;;;;;5025847;28;20179;-70
2023/04/06 01:14:38;;;;;;;13.57;10.40;;;4.50;99.90;;;;;;5008970;28;20179;-70
2023/04/06 01:17:04;;;;;;;10.70;9.60;;;4.60;99.90;;;;;;5022095;28;20305;-70
2023/04/06 01:19:30;;;;;;;10.70;9.70;;;4.60;99.90;;;;;;5020601;28;20203;-70
2023/04/06 01:21:55;;;;;;;12.00;10.80;;;4.60;99.90;;;;;;5021953;28;20211;-69
2023/04/06 01:24:21;;;;;;;10.60;9.60;;;4.50;99.90;;;;;;5022252;28;20176;-70
2023/04/06 01:26:47;;;;;;;11.77;10.60;;;4.30;99.90;;;;;;5015295;28;20195;-71
2023/04/06 01:29:13;;;;;;;11.37;9.80;;;4.10;99.90;;;;;;5024004;28;20468;-70
2023/04/06 01:31:39;;;;;;;12.40;11.10;;;4.10;99.90;;;;;;5006429;28;20930;-70
2023/04/06 01:34:05;;;;;;;11.40;10.27;;;4.10;99.90;;;;;;5026215;28;20179;-69
2023/04/06 01:36:31;;;;;;;11.70;10.50;;;4.10;99.90;;;;;;5025207;28;20495;-69
2023/04/06 01:38:57;;;;;;;13.13;11.80;;;4.00;99.90;;;;;;5009021;28;20777;-69
2023/04/06 01:41:23;;;;;;;15.43;10.40;;;4.00;99.90;;;;;;5025157;28;20179;-68
2023/04/06 01:43:49;;;;;;;11.13;9.93;;;4.00;99.90;;;;;;5024890;28;20472;-69
2023/04/06 01:46:15;;;;;;;12.67;10.17;;;4.00;99.90;;;;;;5007903;28;20286;-69
2023/04/06 01:48:41;;;;;;;13.40;9.90;;;3.90;99.90;;;;;;5023331;28;20741;-70
2023/04/06 01:51:07;;;;;;;11.40;10.30;;;3.90;99.90;;;;;;5021658;28;20429;-69
2023/04/06 01:53:32;;;;;;;11.53;10.33;;;3.80;99.90;;;;;;5005934;28;20414;-70
2023/04/06 01:55:58;;;;;;;10.60;9.60;;;3.80;99.90;;;;;;5020948;28;20188;-69
2023/04/06 01:58:24;;;;;;;10.90;9.80;;;3.80;99.90;;;;;;5024307;28;20209;-69
2023/04/06 02:00:49;;;;;;;11.47;10.37;;;3.90;99.90;;;;;;5004407;28;20188;-70
2023/04/06 02:03:15;;;;;;;12.93;10.50;;;3.80;99.90;;;;;;5019401;28;20250;-69
2023/04/06 02:05:41;;;;;;;14.00;10.70;;;3.90;99.90;;;;;;5020844;28;20242;-69
2023/04/06 02:08:07;;;;;;;11.87;10.60;;;3.90;99.90;;;;;;5021515;28;20176;-69
2023/04/06 02:10:36;;;;;;;12.37;11.07;;;3.80;99.90;;;;;;5022739;28;20247;-69
2023/04/06 02:13:01;;;;;;;11.47;10.27;;;3.80;99.90;;;;;;5022142;28;20423;-69
2023/04/06 02:15:27;;;;;;;13.63;10.37;;;3.80;99.90;;;;;;5022300;28;21076;-70
2023/04/06 02:17:53;;;;;;;11.57;10.43;;;3.80;99.90;;;;;;5021912;28;20220;-70
2023/04/06 02:20:19;;;;;;;13.63;10.07;;;3.80;99.90;;;;;;5019957;28;20180;-69
2023/04/06 02:22:45;;;;;;;11.10;9.97;;;3.70;99.90;;;;;;5019481;28;21265;-69
2023/04/06 02:25:11;;;;;;;11.70;10.03;;;3.70;99.90;;;;;;5021175;28;20207;-69
2023/04/06 02:27:37;;;;;;;16.90;11.90;;;3.60;99.90;;;;;;5019944;28;20223;-69
2023/04/06 02:30:04;;;;;;;11.73;10.57;;;3.50;99.90;;;;;;5019917;28;20450;-69
2023/04/06 02:32:29;;;;;;;11.23;9.93;;;3.60;99.90;;;;;;5018733;28;20477;-70
2023/04/06 02:34:55;;;;;;;15.00;11.90;;;3.50;99.90;;;;;;5020382;28;20427;-69
2023/04/06 02:37:23;;;;;;;12.33;11.13;;;3.50;99.90;;;;;;5020019;28;20443;-69
2023/04/06 02:39:48;;;;;;;16.00;11.63;;;3.50;99.90;;;;;;5019893;28;20180;-70
2023/04/06 02:42:15;;;;;;;13.97;11.40;;;3.50;99.90;;;;;;5019855;28;20465;-70
2023/04/06 02:44:41;;;;;;;11.77;10.57;;;3.40;99.90;;;;;;5023186;28;20758;-68
2023/04/06 02:47:07;;;;;;;11.43;10.23;;;3.40;99.90;;;;;;5006143;28;20442;-68
2023/04/06 02:49:32;;;;;;;10.90;9.87;;;3.40;99.90;;;;;;5019726;28;20469;-71
2023/04/06 02:51:58;;;;;;;12.40;11.10;;;3.20;99.90;;;;;;5022722;28;20186;-68
2023/04/06 02:54:24;;;;;;;15.90;11.83;;;3.20;99.90;;;;;;5019390;28;20176;-68
2023/04/06 02:56:49;;;;;;;10.90;9.90;;;3.30;99.90;;;;;;5022272;28;20207;-68
2023/04/06 02:59:15;;;;;;;11.43;10.37;;;3.20;99.90;;;;;;5003054;28;20253;-69
2023/04/06 03:01:41;;;;;;;13.03;11.70;;;3.30;99.90;;;;;;5020952;28;20200;-69
2023/04/06 03:04:06;;;;;;;11.90;10.70;;;3.20;99.90;;;;;;5020243;28;20243;-69
2023/04/06 03:06:32;;;;;;;15.37;11.30;;;3.20;99.90;;;;;;5004629;28;20207;-69
2023/04/06 03:08:57;;;;;;;11.73;10.53;;;3.20;99.90;;;;;;5019715;28;20176;-69
2023/04/06 03:11:23;;;;;;;13.47;12.07;;;3.30;99.90;;;;;;5003295;28;20278;-68
2023/04/06 03:13:49;;;;;;;12.10;10.70;;;3.20;99.90;;;;;;5019295;28;20218;-69
2023/04/06 03:16:15;;;;;;;14.23;11.43;;;3.20;99.90;;;;;;5019108;28;20223;-69
2023/04/06 03:18:40;;;;;;;13.57;10.60;;;3.30;99.90;;;;;;5022424;28;20206;-69
2023/04/06 03:21:06;;;;;;;12.97;11.43;;;3.20;99.90;;;;;;5018815;28;20172;-69
2023/04/06 03:23:32;;;;;;;12.40;10.70;;;3.20;99.90;;;;;;5020230;28;20734;-69
2023/04/06 03:25:57;;;;;;;12.50;11.30;;;3.10;99.90;;;;;;5005558;28;20178;-69
2023/04/06 03:28:23;;;;;;;14.10;12.00;;;3.00;99.90;;;;;;5005528;28;20724;-69
2023/04/06 03:30:49;;;;;;;13.93;12.43;;;3.00;99.90;;;;;;5020582;28;20180;-69
2023/04/06 03:33:15;;;;;;;11.90;10.70;;;3.10;99.90;;;;;;5019862;28;20188;-69
2023/04/06 03:35:40;;;;;;;13.50;12.10;;;3.20;99.90;;;;;;5020225;28;20957;-69
2023/04/06 03:38:06;;;;;;;22.60;15.23;;;3.30;99.90;;;;;;5002865;28;20205;-69
2023/04/06 03:40:32;;;;;;;13.63;12.23;;;3.30;99.90;;;;;;5021631;28;20557;-69
2023/04/06 03:42:57;;;;;;;13.20;11.20;;;3.00;99.90;;;;;;5022190;28;20695;-69
2023/04/06 03:45:23;;;;;;;12.53;11.20;;;3.00;99.90;;;;;;5021619;28;20552;-69
2023/04/06 03:47:49;;;;;;;15.63;12.30;;;2.90;99.90;;;;;;5019418;28;20358;-70
2023/04/06 03:50:15;;;;;;;13.53;12.23;;;2.90;99.90;;;;;;5019318;28;20180;-69
2023/04/06 03:52:40;;;;;;;11.77;10.53;;;3.00;99.90;;;;;;5002799;28;20521;-69
2023/04/06 03:55:07;;;;;;;11.90;10.50;;;3.10;99.90;;;;;;5021782;28;20414;-69
2023/04/06 03:57:33;;;;;;;11.40;10.20;;;3.10;99.90;;;;;;5020154;28;20292;-69
2023/04/06 03:59:58;;;;;;;12.20;10.90;;;3.10;99.90;;;;;;5022453;28;20539;-70
2023/04/06 04:02:24;;;;;;;13.00;11.53;;;3.10;99.90;;;;;;5019542;28;20687;-70
2023/04/06 04:04:49;;;;;;;13.73;11.50;;;3.10;99.90;;;;;;5019247;28;20293;-70
2023/04/06 04:07:15;;;;;;;13.00;11.07;;;3.10;99.90;;;;;;5019408;28;20297;-70
2023/04/06 04:09:41;;;;;;;11.33;10.20;;;3.10;99.90;;;;;;5023340;28;20557;-70
2023/04/06 04:12:07;;;;;;;12.07;10.10;;;3.20;99.90;;;;;;5022741;28;20473;-70
2023/04/06 04:14:32;;;;;;;11.87;10.73;;;3.20;99.90;;;;;;5022940;28;20201;-69
2023/04/06 04:16:58;;;;;;;14.70;11.87;;;3.10;99.90;;;;;;5022271;28;20644;-70
2023/04/06 04:19:24;;;;;;;13.00;11.60;;;3.10;99.90;;;;;;5022686;28;20682;-69
2023/04/06 04:21:49;;;;;;;15.10;11.90;;;3.00;99.90;;;;;;5022761;28;20214;-69
2023/04/06 04:24:15;;;;;;;12.07;10.77;;;2.90;99.90;;;;;;5022564;28;20654;-69
2023/04/06 04:26:41;;;;;;;12.83;11.53;;;2.80;99.90;;;;;;5005768;28;20207;-69
2023/04/06 04:29:07;;;;;;;12.63;11.30;;;2.90;99.90;;;;;;5023450;28;20191;-69
2023/04/06 04:31:32;;;;;;;14.90;11.50;;;2.90;99.90;;;;;;5020682;28;20427;-70
2023/04/06 04:33:59;;;;;;;12.13;10.90;;;3.00;99.90;;;;;;5021827;28;20175;-69
2023/04/06 04:36:26;;;;;;;14.10;12.53;;;2.90;99.90;;;;;;5025576;28;20200;-69
2023/04/06 04:38:52;;;;;;;15.27;12.50;;;2.80;99.90;;;;;;5025866;28;20984;-69
2023/04/06 04:41:17;;;;;;;13.77;10.87;;;2.90;99.90;;;;;;5026978;28;20402;-69
2023/04/06 04:43:44;;;;;;;13.63;11.40;;;2.80;99.90;;;;;;5026797;28;20422;-69
2023/04/06 04:46:09;;;;;;;13.00;11.70;;;2.80;99.90;;;;;;5009512;28;20195;-70
2023/04/06 04:48:35;;;;;;;15.30;12.40;;;2.80;99.90;;;;;;5025480;28;20488;-69
2023/04/06 04:51:01;;;;;;;17.87;11.67;;;2.80;99.90;;;;;;5025547;28;20702;-69
2023/04/06 04:53:27;;;;;;;12.23;11.03;;;2.80;99.90;;;;;;5008916;28;20726;-69
2023/04/06 04:55:52;;;;;;;15.47;11.13;;;2.80;99.90;;;;;;5024951;28;20183;-69
2023/04/06 04:58:19;;;;;;;13.40;12.00;;;2.80;99.90;;;;;;5008868;28;20187;-69
2023/04/06 05:00:48;;;;;;;14.63;10.90;;;2.90;99.90;;;;;;5025148;28;20317;-69
2023/04/06 05:03:24;;;;;;;13.70;11.90;;;3.00;99.90;;;;;;5018944;28;20541;-69
2023/04/06 05:05:50;;;;;;;13.97;11.70;;;2.90;99.90;;;;;;5021564;28;20425;-69
2023/04/06 05:08:16;;;;;;;12.60;11.30;;;2.90;99.90;;;;;;5020049;28;20947;-68
2023/04/06 05:10:42;;;;;;;18.20;11.90;;;2.90;99.90;;;;;;5004190;28;20652;-68
2023/04/06 05:13:07;;;;;;;13.77;12.37;;;3.00;99.90;;;;;;5020238;28;20215;-67
2023/04/06 05:15:34;;;;;;;13.33;11.93;;;3.00;99.90;;;;;;5022357;28;20848;-69
2023/04/06 05:18:00;;;;;;;12.97;11.67;;;3.00;99.90;;;;;;5019839;28;20255;-67
2023/04/06 05:20:26;;;;;;;14.10;12.70;;;3.00;99.90;;;;;;5023472;28;20441;-68
2023/04/06 05:22:52;;;;;;;14.00;12.50;;;3.00;99.90;;;;;;5024765;28;20925;-68
2023/04/06 05:25:18;;;;;;;14.30;12.20;;;3.10;99.90;;;;;;5023452;28;20480;-69
2023/04/06 05:27:43;;;;;;;12.43;10.47;;;3.10;99.90;;;;;;5018061;28;20210;-68
2023/04/06 05:30:09;;;;;;;13.10;11.80;;;3.10;99.90;;;;;;5020289;28;20588;-68
2023/04/06 05:32:35;;;;;;;10.90;9.80;;;3.10;99.90;;;;;;5020079;28;20194;-68
2023/04/06 05:35:01;;;;;;;13.90;11.63;;;3.20;99.90;;;;;;5020035;28;20565;-68
2023/04/06 05:37:26;;;;;;;12.77;11.33;;;3.10;99.90;;;;;;5019580;28;20632;-69
2023/04/06 05:39:52;;;;;;;14.40;11.70;;;3.10;99.90;;;;;;5019860;28;20191;-68
2023/04/06 05:42:17;;;;;;;12.33;11.17;;;3.20;99.90;;;;;;5019651;28;20441;-68
2023/04/06 05:44:43;;;;;;;14.20;11.77;;;3.20;99.90;;;;;;5020027;28;20231;-68
2023/04/06 05:47:09;;;;;;;14.73;12.07;;;3.30;99.90;;;;;;5022576;28;20199;-68
2023/04/06 05:49:35;;;;;;;13.10;11.80;;;3.40;99.90;;;;;;5022758;28;20244;-69
2023/04/06 05:52:00;;;;;;;15.50;12.03;;;3.50;99.90;;;;;;5019513;28;20275;-67
2023/04/06 05:54:26;;;;;;;10.97;9.87;;;3.60;99.90;;;;;;5019326;28;20274;-68
2023/04/06 05:56:52;;;;;;;13.50;11.20;;;3.50;99.90;;;;;;5019224;28;20688;-68
2023/04/06 05:59:18;;;;;;;14.60;13.10;;;3.60;99.90;;;;;;5019527;28;20430;-68
2023/04/06 06:01:44;;;;;;;14.37;11.67;;;3.70;99.90;;;;;;5019237;28;20207;-68
2023/04/06 06:04:09;;;;;;;16.87;12.80;;;3.70;99.90;;;;;;5018668;28;20184;-68
2023/04/06 06:06:36;;;;;;;12.97;11.60;;;3.70;99.90;;;;;;5019243;28;20219;-68
2023/04/06 06:09:03;;;;;;;16.20;11.97;;;3.80;99.90;;;;;;5019512;28;20180;-69
2023/04/06 06:11:29;;;;;;;13.47;11.97;;;3.90;99.90;;;;;;5019494;28;20418;-69
2023/04/06 06:13:55;;;;;;;13.43;12.00;;;3.90;99.90;;;;;;5019624;28;20422;-69
2023/04/06 06:16:21;;;;;;;13.30;11.70;;;4.00;99.90;;;;;;5019012;28;20489;-69
2023/04/06 06:18:47;;;;;;;15.57;13.30;;;4.10;99.90;;;;;;5018937;28;20449;-69
2023/04/06 06:21:14;;;;;;;14.13;11.53;;;4.10;99.90;;;;;;5019245;28;20430;-69
2023/04/06 06:23:41;;;;;;;17.77;13.30;;;4.30;99.90;;;;;;5021435;28;20491;-69
2023/04/06 06:26:07;;;;;;;13.53;12.07;;;4.40;99.90;;;;;;5022328;28;20908;-69
2023/04/06 06:28:33;;;;;;;15.60;12.03;;;4.50;99.90;;;;;;5018589;28;20447;-69
2023/04/06 06:30:58;;;;;;;13.53;12.23;;;4.70;99.90;;;;;;5017605;28;20660;-69
2023/04/06 06:33:25;;;;;;;15.40;13.70;;;4.80;99.90;;;;;;5012990;28;20194;-69
2023/04/06 06:35:51;;;;;;;13.57;12.17;;;5.00;99.90;;;;;;5024468;28;20183;-69
2023/04/06 06:38:17;;;;;;;16.57;13.00;;;5.20;99.90;;;;;;5049576;23;20492;-70
2023/04/06 06:40:43;;;;;;;14.30;11.83;;;5.30;99.90;;;;;;5025998;28;20196;-68
2023/04/06 06:43:08;;;;;;;13.40;12.00;;;5.40;99.90;;;;;;5042936;28;20452;-69
2023/04/06 06:45:35;;;;;;;13.57;12.23;;;5.60;99.90;;;;;;5026067;28;20182;-68
2023/04/06 06:48:00;;;;;;;15.33;12.20;;;5.70;99.90;;;;;;5034090;28;20635;-69
2023/04/06 06:50:27;;;;;;;16.23;12.03;;;5.80;99.90;;;;;;5018804;28;20417;-68
2023/04/06 06:52:53;;;;;;;16.03;12.97;;;6.00;99.90;;;;;;5031082;28;20544;-70
2023/04/06 06:55:19;;;;;;;16.73;13.23;;;6.10;99.90;;;;;;5007676;28;20449;-67
2023/04/06 06:57:46;;;;;;;15.90;13.93;;;6.20;99.90;;;;;;5013092;28;20298;-70
2023/04/06 07:00:13;;;;;;;14.07;12.13;;;6.30;99.90;;;;;;5034582;28;20226;-70
2023/04/06 07:02:38;;;;;;;16.50;12.10;;;6.50;99.90;;;;;;5025969;28;20515;-67
2023/04/06 07:05:04;;;;;;;15.30;12.90;;;6.60;99.90;;;;;;5023795;28;20418;-68
2023/04/06 07:07:32;;;;;;;16.80;14.57;;;6.80;99.90;;;;;;5023222;28;20237;-69
2023/04/06 07:09:58;;;;;;;15.83;14.23;;;6.90;99.90;;;;;;5030195;28;20466;-68
2023/04/06 07:12:23;;;;;;;18.30;14.30;;;6.90;99.90;;;;;;5012395;28;20430;-68
2023/04/06 07:14:49;;;;;;;16.60;13.70;;;7.00;99.90;;;;;;5029725;28;20286;-67
2023/04/06 07:17:15;;;;;;;18.57;15.20;;;6.90;99.90;;;;;;5027681;28;20184;-69
2023/04/06 07:19:40;;;;;;;21.23;18.03;;;7.20;99.90;;;;;;5006237;28;20546;-69
2023/04/06 07:22:06;;;;;;;16.67;14.90;;;7.30;99.90;;;;;;5024842;28;20655;-68
2023/04/06 07:24:32;;;;;;;19.57;14.17;;;7.40;99.30;;;;;;5023657;28;20180;-68
2023/04/06 07:27:00;;;;;;;14.80;13.30;;;7.20;99.00;;;;;;5028187;28;20185;-69
2023/04/06 07:29:26;;;;;;;15.37;13.90;;;7.00;99.30;;;;;;5025932;28;20431;-69
2023/04/06 07:31:52;;;;;;;16.90;15.10;;;6.60;99.90;;;;;;5029558;28;20913;-69
2023/04/06 07:34:18;;;;;;;15.90;14.23;;;6.60;99.90;;;;;;5033455;28;20512;-69
2023/04/06 07:36:44;;;;;;;16.33;14.13;;;6.70;99.90;;;;;;5024599;28;20428;-67
2023/04/06 07:39:10;;;;;;;18.67;14.77;;;6.80;99.90;;;;;;5033432;28;20214;-67
2023/04/06 07:41:36;;;;;;;18.20;15.70;;;7.00;99.90;;;;;;5030657;28;20434;-68
2023/04/06 07:44:02;;;;;;;16.50;14.70;;;7.20;99.90;;;;;;5010924;28;20202;-66
2023/04/06 07:46:27;;;;;;;20.13;15.57;;;7.40;99.70;;;;;;5007430;28;20241;-67
2023/04/06 07:48:53;;;;;;;14.83;12.50;;;7.40;99.10;;;;;;5036804;28;20204;-67
2023/04/06 07:51:18;;;;;;;15.07;13.57;;;7.40;98.10;;;;;;5013101;28;20176;-68
2023/04/06 07:53:45;;;;;;;15.13;13.63;;;7.60;98.60;;;;;;5028125;28;20189;-67
2023/04/06 07:56:11;;;;;;;18.60;15.00;;;7.60;98.00;;;;;;5038355;28;20192;-68
2023/04/06 07:58:37;;;;;;;17.10;15.30;;;7.70;98.70;;;;;;5022090;28;20439;-68
2023/04/06 08:01:03;;;;;;;16.00;14.30;;;7.70;99.30;;;;;;5009391;28;20429;-69
2023/04/06 08:03:29;;;;;;;21.77;16.07;;;7.60;99.20;;;;;;5019669;28;20223;-69
2023/04/06 08:05:55;;;;;;;16.27;14.67;;;7.60;99.30;;;;;;5014625;28;20582;-67
2023/04/06 08:08:21;;;;;;;17.20;14.20;;;7.90;99.40;;;;;;5033785;28;20212;-70
2023/04/06 08:10:48;;;;;;;18.43;16.40;;;7.90;99.50;;;;;;5017153;28;20423;-68
2023/04/06 08:13:14;;;;;;;17.97;14.47;;;8.10;99.10;;;;;;5026664;28;20434;-67
2023/04/06 08:15:39;;;;;;;17.20;14.60;;;8.00;98.90;;;;;;5033778;28;20425;-69
2023/04/06 08:18:05;;;;;;;15.47;13.80;;;8.10;98.30;;;;;;5007954;28;20497;-68
2023/04/06 08:20:31;;;;;;;16.37;14.30;;;8.30;98.50;;;;;;5020628;28;20198;-68
2023/04/06 08:22:56;;;;;;;15.47;13.87;;;8.40;97.70;;;;;;5031961;28;20199;-68
2023/04/06 08:25:22;;;;;;;18.07;13.40;;;8.50;97.30;;;;;;5037615;28;20265;-69
2023/04/06 08:27:48;;;;;;;16.87;15.17;;;8.50;96.90;;;;;;5037242;28;20226;-68
2023/04/06 08:30:15;;;;;;;17.13;14.70;;;8.70;97.90;;;;;;5009073;28;20194;-69
2023/04/06 08:32:41;;;;;;;18.50;14.60;;;8.90;96.90;;;;;;5011432;28;20863;-68
2023/04/06 08:35:07;;;;;;;17.10;14.50;;;8.80;96.80;;;;;;5037988;28;20448;-67
2023/04/06 08:37:33;;;;;;;17.13;14.40;;;8.90;96.70;;;;;;5027124;28;20793;-68
2023/04/06 08:39:59;;;;;;;14.90;13.40;;;9.00;96.60;;;;;;5034307;28;20425;-67
2023/04/06 08:42:28;;;;;;;17.77;15.23;;;9.20;96.80;;;;;;5038775;28;20207;-68
2023/04/06 08:44:55;;;;;;;18.10;14.43;;;9.10;96.50;;;;;;5037722;28;20444;-67
2023/04/06 08:47:21;;;;;;;15.40;13.80;;;9.30;96.50;;;;;;5032496;28;20821;-68
2023/04/06 08:49:47;;;;;;;14.50;13.10;;;9.50;96.50;;;;;;5015335;28;20512;-68
2023/04/06 08:52:15;;;;;;;16.33;14.60;;;9.70;96.40;;;;;;5039984;28;20187;-68
2023/04/06 08:54:41;;;;;;;14.80;13.00;;;9.80;95.30;;;;;;5038838;28;20418;-68
2023/04/06 08:57:07;;;;;;;15.87;14.20;;;10.00;93.60;;;;;;5011187;28;20779;-69
2023/04/06 08:59:34;;;;;;;13.53;11.87;;;10.00;92.50;;;;;;5038810;28;20237;-67
2023/04/06 09:02:03;;;;;;;13.00;11.17;;;10.00;92.20;;;;;;5025627;28;20456;-67
2023/04/06 09:04:28;;;;;;;12.37;11.10;;;10.00;89.90;;;;;;5034185;28;20426;-69
2023/04/06 09:06:54;;;;;;;15.30;13.10;;;10.00;88.90;;;;;;5025926;28;20828;-68
2023/04/06 09:09:20;;;;;;;15.87;14.17;;;10.10;91.10;;;;;;5007958;28;20587;-66
2023/04/06 09:11:50;;;;;;;14.13;12.63;;;10.20;91.50;;;;;;5009499;28;20196;-69
2023/04/06 09:14:16;;;;;;;13.03;11.70;;;10.30;91.20;;;;;;5030402;28;20589;-69
2023/04/06 09:16:45;;;;;;;15.20;13.70;;;10.20;90.50;;;;;;5021259;28;20445;-68
2023/04/06 09:19:11;;;;;;;15.57;13.43;;;10.20;90.90;;;;;;5007256;28;20446;-68
2023/04/06 09:21:39;;;;;;;18.30;12.93;;;10.30;91.50;;;;;;5035587;28;20416;-68
2023/04/06 09:24:07;;;;;;;14.07;12.23;;;10.40;90.20;;;;;;5007470;28;20515;-67
2023/04/06 09:26:43;;;;;;;15.13;12.90;;;10.40;90.00;;;;;;5030254;28;20430;-67
2023/04/06 09:29:09;;;;;;;12.23;10.90;;;10.60;90.60;;;;;;5024889;28;20550;-69
2023/04/06 09:31:35;;;;;;;9.07;8.10;;;10.90;84.70;;;;;;5016234;28;20508;-67
2023/04/06 09:34:01;;;;;;;13.67;9.03;;;10.90;77.10;;;;;;5009813;28;20281;-68
2023/04/06 09:36:32;;;;;;;14.37;10.70;;;11.10;78.40;;;;;;5037042;28;20182;-68
2023/04/06 09:39:00;;;;;;;10.73;9.60;;;11.20;78.20;;;;;;5014015;28;20561;-69
2023/04/06 09:41:31;;;;;;;11.30;10.40;;;11.40;77.80;;;;;;5023357;28;20424;-70
2023/04/06 09:44:05;;;;;;;11.83;10.57;;;11.50;74.80;;;;;;5032292;28;20435;-69
2023/04/06 09:46:34;;;;;;;11.93;9.77;;;11.40;73.60;;;;;;5032986;28;20942;-68
2023/04/06 09:49:01;;;;;;;10.93;9.80;;;11.50;72.90;;;;;;5031627;28;20438;-69
2023/04/06 09:51:35;;;;;;;11.80;10.60;;;11.50;73.50;;;;;;5023852;28;20516;-68
2023/04/06 09:54:03;;;;;;;12.73;11.47;;;11.50;74.70;;;;;;5015535;28;20430;-68
2023/04/06 09:56:37;;;;;;;11.80;10.50;;;11.50;74.00;;;;;;5032672;28;20435;-69
2023/04/06 09:59:08;;;;;;;11.80;9.80;;;11.50;74.30;;;;;;5039951;28;20446;-68
2023/04/06 10:01:36;;;;;;;12.47;10.73;;;11.70;74.80;;;;;;5037360;28;20420;-69
2023/04/06 10:04:26;;;;;;;11.10;10.00;;;11.90;73.00;;;;;;5037823;28;20433;-67
2023/04/06 10:06:52;;;;;;;11.63;9.47;;;12.20;74.90;;;;;;5023923;28;20723;-67
2023/04/06 10:09:22;;;;;;;12.13;8.90;;;12.00;69.60;;;;;;5030371;28;20441;-69
2023/04/06 10:11:50;;;;;;;10.27;9.27;;;11.90;70.10;;;;;;5028227;28;20417;-67
2023/04/06 10:14:16;;;;;;;9.70;8.80;;;11.80;66.90;;;;;;5037057;28;20414;-68
2023/04/06 10:16:42;;;;;;;10.90;9.90;;;11.90;67.60;;;;;;5034852;28;20429;-66
2023/04/06 10:19:21;;;;;;;10.73;9.63;;;12.00;69.00;;;;;;5015970;28;20449;-69
2023/04/06 10:21:50;;;;;;;12.10;10.47;;;12.20;68.00;;;;;;5023268;28;20424;-67
2023/04/06 10:24:17;;;;;;;10.60;9.50;;;12.30;66.90;;;;;;5035668;28;20427;-68
2023/04/06 10:26:42;;;;;;;10.37;9.27;;;12.50;68.40;;;;;;5039396;28;20697;-67
2023/04/06 10:29:08;;;;;;;10.30;9.30;;;12.80;66.50;;;;;;5030699;28;21029;-68
2023/04/06 10:31:42;;;;;;;10.93;8.90;;;12.80;65.00;;;;;;5036778;28;20270;-67
2023/04/06 10:34:07;;;;;;;9.60;8.70;;;12.90;64.80;;;;;;5027377;28;20210;-68
2023/04/06 10:36:34;;;;;;;9.80;8.80;;;13.00;63.50;;;;;;5019936;28;20450;-67
2023/04/06 10:39:02;;;;;;;9.83;8.83;;;12.90;63.90;;;;;;5039260;28;20220;-67
2023/04/06 10:41:47;;;;;;;11.67;10.03;;;12.80;63.30;;;;;;5023100;28;20523;-69
2023/04/06 10:44:23;;;;;;;12.40;9.10;;;12.70;62.10;;;;;;5030273;28;20977;-68
2023/04/06 10:47:17;;;;;;;10.10;9.10;;;12.60;61.50;;;;;;5022622;28;20416;-69
2023/04/06 10:49:42;;;;;;;14.70;9.70;;;13.00;63.60;;;;;;5008221;28;20425;-68
2023/04/06 10:52:09;;;;;;;10.53;9.43;;;14.30;61.20;;;;;;5018362;28;20429;-69
2023/04/06 10:54:44;;;;;;;9.17;8.37;;;15.30;58.10;;;;;;5036622;28;20657;-70
2023/04/06 10:57:09;;;;;;;10.37;9.30;;;16.80;54.60;;;;;;5022211;28;21069;-68
2023/04/06 10:59:35;;;;;;;9.20;8.30;;;17.80;51.60;;;;;;5006021;28;20972;-68
2023/04/06 11:02:01;;;;;;;10.40;8.53;;;18.50;48.90;;;;;;5023162;28;20575;-70
2023/04/06 11:04:27;;;;;;;11.37;10.17;;;18.90;48.70;;;;;;5027569;28;20207;-69
2023/04/06 11:06:54;;;;;;;9.53;7.77;;;18.40;46.80;;;;;;4989386;28;20425;-70
2023/04/06 11:09:28;;;;;;;9.30;8.17;;;18.70;46.50;;;;;;5031771;28;20199;-68
2023/04/06 11:11:55;;;;;;;9.07;8.17;;;19.50;45.30;;;;;;5024792;28;20433;-68
2023/04/06 11:14:21;;;;;;;10.50;9.40;;;19.50;44.90;;;;;;5023438;28;20434;-67
2023/04/06 11:16:50;;;;;;;9.80;8.80;;;19.70;43.90;;;;;;5037564;28;20516;-67
2023/04/06 11:19:16;;;;;;;10.40;9.30;;;19.40;44.00;;;;;;5029697;28;20265;-69
2023/04/06 11:21:47;;;;;;;9.60;8.60;;;18.90;44.10;;;;;;5021842;28;20438;-66
2023/04/06 11:24:23;;;;;;;9.37;8.47;;;19.50;43.70;;;;;;5033241;28;20422;-68
2023/04/06 11:26:54;;;;;;;8.30;7.47;;;20.50;43.60;;;;;;5038866;28;20441;-69
2023/04/06 11:29:27;;;;;;;8.47;7.70;;;21.20;43.80;;;;;;5006344;28;20449;-69
2023/04/06 11:32:01;;;;;;;8.60;7.80;;;21.70;41.40;;;;;;5016065;28;21017;-69
2023/04/06 11:34:30;;;;;;;10.70;8.37;;;21.70;41.80;;;;;;5029958;28;20771;-68
2023/04/06 11:36:57;;;;;;;8.97;8.17;;;21.10;41.00;;;;;;5028202;28;20418;-67
2023/04/06 11:39:25;;;;;;;8.80;8.00;;;21.40;40.00;;;;;;5026452;28;20461;-67
2023/04/06 11:41:52;;;;;;;8.40;7.70;;;22.00;39.40;;;;;;5032742;28;20429;-67
2023/04/06 11:44:33;;;;;;;8.50;7.70;;;22.60;39.70;;;;;;5033292;28;20422;-68
2023/04/06 11:47:00;;;;;;;8.73;7.93;;;22.70;37.50;;;;;;5038927;28;20479;-69
2023/04/06 11:49:30;;;;;;;7.70;7.00;;;22.70;38.20;;;;;;5027970;28;20438;-66
2023/04/06 11:51:57;;;;;;;9.60;8.60;;;22.70;37.40;;;;;;5028711;28;20429;-68
2023/04/06 11:54:32;;;;;;;8.20;7.40;;;22.00;37.50;;;;;;5042353;28;20939;-70
2023/04/06 11:56:58;;;;;;;8.80;7.90;;;22.10;37.40;;;;;;5029638;28;20428;-69
2023/04/06 11:59:23;;;;;;;8.97;8.03;;;21.40;37.00;;;;;;5028982;28;20821;-68
2023/04/06 12:01:49;;;;;;;8.60;7.70;;;22.20;36.80;;;;;;5009151;28;20194;-68
2023/04/06 12:04:15;;;;;;;9.03;8.23;;;22.80;37.60;;;;;;5027386;28;20224;-68
2023/04/06 12:06:40;;;;;;;8.70;7.97;;;22.50;36.20;;;;;;5009292;28;20726;-68
2023/04/06 12:09:06;;;;;;;8.10;7.33;;;21.60;36.90;;;;;;5008867;28;20214;-68
2023/04/06 12:11:32;;;;;;;8.77;7.97;;;21.80;38.20;;;;;;5015021;28;20187;-66
2023/04/06 12:13:59;;;;;;;8.53;7.73;;;21.50;36.70;;;;;;5042012;28;20187;-68
2023/04/06 12:16:24;;;;;;;9.00;8.07;;;22.20;37.10;;;;;;5024917;28;20198;-67
2023/04/06 12:18:51;;;;;;;9.23;8.43;;;22.00;37.20;;;;;;5032909;28;20445;-70
2023/04/06 12:21:16;;;;;;;9.40;8.60;;;22.40;36.60;;;;;;5018084;28;20187;-69
2023/04/06 12:23:42;;;;;;;8.10;7.30;;;23.40;37.60;;;;;;5026572;28;20457;-69
2023/04/06 12:26:08;;;;;;;7.73;6.63;;;24.30;37.30;;;;;;4992736;28;20260;-69
2023/04/06 12:28:33;;;;;;;8.63;7.73;;;24.90;35.00;;;;;;5011952;28;20237;-69
2023/04/06 12:30:59;;;;;;;10.10;7.50;;;25.80;33.60;;;;;;5009670;28;20190;-73
2023/04/06 12:33:25;;;;;;;8.47;7.67;;;24.50;34.00;;;;;;5030368;28;20442;-71
2023/04/06 12:35:50;;;;;;;7.87;7.17;;;24.10;34.50;;;;;;5033087;28;20198;-72